createdAt,value
2023-02-17T00:00:23.129Z,99904.56
2023-02-17T00:02:57.792Z,99901.81
2023-02-17T00:05:30.553Z,99901.38
2023-02-17T00:08:03.303Z,99884.59
2023-02-17T00:10:36.074Z,99893.41
2023-02-17T00:13:09.231Z,99889.41
2023-02-17T00:15:43.435Z,99887.78
2023-02-17T00:18:16.262Z,99886.56
2023-02-17T00:20:49.194Z,99883.00
2023-02-17T00:23:22.109Z,99888.19
2023-02-17T00:25:54.894Z,99880.25
2023-02-17T00:28:27.938Z,99872.22
2023-02-17T00:31:07.196Z,99873.88
2023-02-17T00:33:40.144Z,99878.28
2023-02-17T00:36:15.303Z,99877.44
2023-02-17T00:38:49.086Z,99874.19
2023-02-17T00:41:22.800Z,99874.59
2023-02-17T00:43:56.073Z,99873.06
2023-02-17T00:46:30.638Z,99868.28
2023-02-17T00:49:03.498Z,99865.34
2023-02-17T00:51:36.370Z,99868.25
2023-02-17T00:54:10.730Z,99881.06
2023-02-17T00:56:44.094Z,99871.06
2023-02-17T00:59:17.048Z,99886.66
2023-02-17T01:01:51.258Z,99881.09
2023-02-17T01:04:24.296Z,99881.47
2023-02-17T01:06:57.179Z,99878.75
2023-02-17T01:09:30.037Z,99876.38
2023-02-17T01:12:02.844Z,99869.22
2023-02-17T01:14:37.672Z,99871.63
2023-02-17T01:17:11.868Z,99863.25
2023-02-17T01:19:45.013Z,99861.97
2023-02-17T01:22:17.967Z,99861.66
2023-02-17T01:24:50.867Z,99865.19
2023-02-17T01:27:23.784Z,99866.81
2023-02-17T01:29:56.794Z,99866.84
2023-02-17T01:32:31.040Z,99854.44
2023-02-17T01:35:03.901Z,99851.66
2023-02-17T01:37:41.021Z,99838.59
2023-02-17T01:40:15.067Z,99839.00
2023-02-17T01:42:48.014Z,99844.94
2023-02-17T01:45:34.585Z,99844.56
2023-02-17T01:48:13.272Z,99834.63
2023-02-17T01:50:51.192Z,99821.44
2023-02-17T01:53:28.671Z,99824.22
2023-02-17T01:56:02.746Z,99822.66
2023-02-17T01:58:36.281Z,99833.41
2023-02-17T02:01:09.992Z,99823.84
2023-02-17T02:03:45.370Z,99815.91
2023-02-17T02:06:23.896Z,99802.75
2023-02-17T02:09:03.133Z,99809.53
2023-02-17T02:11:37.364Z,99796.38
2023-02-17T02:14:14.087Z,99795.97
2023-02-17T02:16:54.067Z,99792.03
2023-02-17T02:19:57.886Z,99793.97
2023-02-17T02:22:58.725Z,99779.31
2023-02-17T02:26:03.920Z,99783.69
2023-02-17T02:28:52.824Z,99796.78
2023-02-17T02:31:30.780Z,99788.84
2023-02-17T02:34:10.032Z,99788.41
2023-02-17T02:36:47.398Z,99789.59
2023-02-17T02:39:22.221Z,99780.06
2023-02-17T02:42:00.094Z,99782.00
2023-02-17T02:44:33.052Z,99779.25
2023-02-17T02:47:08.321Z,99780.06
2023-02-17T02:49:42.683Z,99774.47
2023-02-17T02:52:24.597Z,99778.44
2023-02-17T02:55:05.855Z,99770.84
2023-02-17T02:57:45.997Z,99764.94
2023-02-17T03:00:25.118Z,99782.03
2023-02-17T03:03:03.158Z,99780.00
2023-02-17T03:05:45.729Z,99770.09
2023-02-17T03:08:23.013Z,99769.28
2023-02-17T03:10:57.581Z,99767.25
2023-02-17T03:13:33.547Z,99774.84
2023-02-17T03:16:07.579Z,99770.88
2023-02-17T03:18:40.701Z,99769.31
2023-02-17T03:21:18.237Z,99764.53
2023-02-17T03:23:51.316Z,99772.91
2023-02-17T03:26:24.212Z,99760.50
2023-02-17T03:28:57.217Z,99755.41
2023-02-17T03:31:31.038Z,99764.13
2023-02-17T03:34:04.441Z,99762.13
2023-02-17T03:36:38.801Z,99760.13
2023-02-17T03:39:11.720Z,99757.75
2023-02-17T03:41:44.595Z,99756.97
2023-02-17T03:44:17.494Z,99760.97
2023-02-17T03:46:50.279Z,99757.38
2023-02-17T03:49:23.041Z,99760.13
2023-02-17T03:51:58.175Z,99751.34
2023-02-17T03:54:30.994Z,99753.72
2023-02-17T03:57:03.877Z,99751.38
2023-02-17T03:59:36.858Z,99748.84
2023-02-17T04:02:09.851Z,99752.09
2023-02-17T04:04:43.037Z,99745.78
2023-02-17T04:07:17.207Z,99751.63
2023-02-17T04:09:50.236Z,99744.41
2023-02-17T04:12:23.220Z,99749.28
2023-02-17T04:14:56.220Z,99749.59
2023-02-17T04:17:29.028Z,99741.72
2023-02-17T04:20:01.948Z,99738.94
2023-02-17T04:22:36.090Z,99735.34
2023-02-17T04:25:09.290Z,99736.94
2023-02-17T04:27:42.145Z,99740.44
2023-02-17T04:30:16.118Z,99739.69
2023-02-17T04:32:49.250Z,99737.28
2023-02-17T04:35:21.992Z,99747.19
2023-02-17T04:37:56.602Z,99743.66
2023-02-17T04:40:29.651Z,99744.09
2023-02-17T04:43:02.990Z,99743.66
2023-02-17T04:45:36.055Z,99731.38
2023-02-17T04:48:08.880Z,99756.72
2023-02-17T04:50:41.699Z,99748.06
2023-02-17T04:53:15.893Z,99750.88
2023-02-17T04:55:50.495Z,99750.03
2023-02-17T04:58:23.331Z,99746.44
2023-02-17T05:00:59.544Z,99743.66
2023-02-17T05:03:32.462Z,99735.72
2023-02-17T05:06:06.242Z,99753.97
2023-02-17T05:08:41.006Z,99746.38
2023-02-17T05:11:13.810Z,99752.38
2023-02-17T05:13:46.507Z,99751.97
2023-02-17T05:16:20.002Z,99754.38
2023-02-17T05:18:53.018Z,99748.00
2023-02-17T05:21:25.777Z,99750.69
2023-02-17T05:24:00.087Z,99743.59
2023-02-17T05:26:33.060Z,99742.00
2023-02-17T05:29:06.348Z,99743.22
2023-02-17T05:31:39.301Z,99734.00
2023-02-17T05:34:13.511Z,99743.16
2023-02-17T05:36:46.335Z,99743.97
2023-02-17T05:39:20.487Z,99735.72
2023-02-17T05:41:55.323Z,99734.47
2023-02-17T05:44:29.298Z,99731.75
2023-02-17T05:47:02.155Z,99732.13
2023-02-17T05:49:35.189Z,99729.69
2023-02-17T05:52:08.199Z,99732.91
2023-02-17T05:54:42.478Z,99722.63
2023-02-17T05:57:15.531Z,99720.66
2023-02-17T05:59:48.439Z,99724.63
2023-02-17T06:02:21.332Z,99724.22
2023-02-17T06:04:54.161Z,99729.00
2023-02-17T06:07:27.148Z,99726.59
2023-02-17T06:10:01.555Z,99719.41
2023-02-17T06:12:34.500Z,99730.13
2023-02-17T06:15:08.268Z,99728.09
2023-02-17T06:17:41.484Z,99732.06
2023-02-17T06:20:14.830Z,99732.13
2023-02-17T06:22:47.819Z,99730.50
2023-02-17T06:25:22.164Z,99732.06
2023-02-17T06:27:55.151Z,99727.25
2023-02-17T06:30:28.276Z,99730.41
2023-02-17T06:33:01.205Z,99726.44
2023-02-17T06:35:34.226Z,99727.69
2023-02-17T06:38:07.260Z,99728.84
2023-02-17T06:40:41.424Z,99728.84
2023-02-17T06:43:14.528Z,99729.63
2023-02-17T06:45:47.312Z,99728.84
2023-02-17T06:48:20.290Z,99725.69
2023-02-17T06:50:53.472Z,99715.28
2023-02-17T06:53:26.705Z,99719.69
2023-02-17T06:56:00.822Z,99723.25
2023-02-17T06:58:35.404Z,99730.03
2023-02-17T07:01:09.586Z,99743.97
2023-02-17T07:03:42.403Z,99739.56
2023-02-17T07:06:15.458Z,99742.75
2023-02-17T07:08:48.635Z,99741.19
2023-02-17T07:11:22.917Z,99749.59
2023-02-17T07:13:55.788Z,99753.56
2023-02-17T07:16:28.533Z,99740.44
2023-02-17T07:19:01.357Z,99741.66
2023-02-17T07:21:34.126Z,99741.66
2023-02-17T07:24:07.513Z,99742.88
2023-02-17T07:26:41.796Z,99750.47
2023-02-17T07:29:14.570Z,99761.59
2023-02-17T07:31:47.520Z,99764.28
2023-02-17T07:34:20.356Z,99769.13
2023-02-17T07:36:53.114Z,99762.31
2023-02-17T07:39:25.915Z,99761.94
2023-02-17T07:42:01.144Z,99767.88
2023-02-17T07:44:34.623Z,99773.03
2023-02-17T07:47:07.474Z,99772.63
2023-02-17T07:49:40.375Z,99773.78
2023-02-17T07:52:13.242Z,99771.81
2023-02-17T07:54:46.033Z,99784.94
2023-02-17T07:57:20.134Z,99781.34
2023-02-17T07:59:53.088Z,99773.84
2023-02-17T08:02:26.181Z,99773.72
2023-02-17T08:04:59.093Z,99779.72
2023-02-17T08:07:33.004Z,99778.56
2023-02-17T08:10:24.286Z,99779.72
2023-02-17T08:13:15.835Z,99771.69
2023-02-17T08:15:48.603Z,99777.75
2023-02-17T08:18:21.439Z,99769.78
2023-02-17T08:20:54.241Z,99772.97
2023-02-17T08:23:29.824Z,99767.78
2023-02-17T08:26:02.636Z,99770.13
2023-02-17T08:28:36.916Z,99776.84
2023-02-17T08:31:17.026Z,99788.41
2023-02-17T08:33:49.978Z,99782.03
2023-02-17T08:36:25.253Z,99784.06
2023-02-17T08:38:58.364Z,99793.56
2023-02-17T08:41:33.521Z,99798.72
2023-02-17T08:44:11.612Z,99788.41
2023-02-17T08:46:48.356Z,99791.97
2023-02-17T08:49:23.937Z,99783.16
2023-02-17T08:51:56.749Z,99785.50
2023-02-17T08:54:29.768Z,99777.94
2023-02-17T08:57:02.530Z,99778.75
2023-02-17T08:59:36.659Z,99778.00
2023-02-17T09:02:09.439Z,99777.47
2023-02-17T09:04:43.238Z,99787.50
2023-02-17T09:07:16.871Z,99791.09
2023-02-17T09:09:49.684Z,99792.34
2023-02-17T09:12:22.691Z,99799.88
2023-02-17T09:14:56.991Z,99812.59
2023-02-17T09:17:30.594Z,99810.19
2023-02-17T09:20:11.208Z,99799.34
2023-02-17T09:22:51.384Z,99797.81
2023-02-17T09:25:24.519Z,99800.22
2023-02-17T09:27:59.749Z,99804.19
2023-02-17T09:30:34.300Z,99804.56
2023-02-17T09:33:07.597Z,99805.34
2023-02-17T09:35:40.663Z,99798.53
2023-02-17T09:38:13.605Z,99791.72
2023-02-17T09:40:48.797Z,99789.72
2023-02-17T09:43:27.471Z,99792.53
2023-02-17T09:46:07.404Z,99790.53
2023-02-17T09:48:41.963Z,99804.88
2023-02-17T09:51:20.633Z,99798.81
2023-02-17T09:53:59.075Z,99792.06
2023-02-17T09:56:36.241Z,99784.00
2023-02-17T09:59:15.489Z,99790.03
2023-02-17T10:01:53.356Z,99790.75
2023-02-17T10:04:33.867Z,99797.50
2023-02-17T10:07:10.956Z,99794.72
2023-02-17T10:09:50.485Z,99784.28
2023-02-17T10:12:27.074Z,99779.88
2023-02-17T10:15:05.816Z,99777.81
2023-02-17T10:17:45.191Z,99770.31
2023-02-17T10:20:23.581Z,99781.44
2023-02-17T10:23:03.036Z,99777.50
2023-02-17T10:25:52.389Z,99775.84
2023-02-17T10:28:39.885Z,99778.88
2023-02-17T10:31:16.264Z,99794.06
2023-02-17T10:33:56.641Z,99794.16
2023-02-17T10:36:39.966Z,99785.41
2023-02-17T10:39:31.422Z,99791.31
2023-02-17T10:42:05.460Z,99787.06
2023-02-17T10:44:39.210Z,99787.81
2023-02-17T10:47:12.460Z,99782.28
2023-02-17T10:49:50.761Z,99790.28
2023-02-17T10:52:27.097Z,99781.50
2023-02-17T10:55:11.367Z,99778.31
2023-02-17T10:58:00.485Z,99781.38
2023-02-17T11:00:33.748Z,99785.06
2023-02-17T11:03:06.579Z,99787.84
2023-02-17T11:05:40.746Z,99791.03
2023-02-17T11:08:30.139Z,99782.66
2023-02-17T11:11:06.006Z,99785.88
2023-02-17T11:13:42.481Z,99772.75
2023-02-17T11:16:26.068Z,99788.69
2023-02-17T11:18:58.910Z,99783.84
2023-02-17T11:21:34.547Z,99775.88
2023-02-17T11:24:07.901Z,99779.44
2023-02-17T11:26:40.831Z,99776.59
2023-02-17T11:29:19.129Z,99772.72
2023-02-17T11:31:56.585Z,99783.81
2023-02-17T11:34:32.955Z,99770.94
2023-02-17T11:37:24.577Z,99781.38
2023-02-17T11:39:57.569Z,99779.75
2023-02-17T11:42:33.234Z,99777.31
2023-02-17T11:45:18.012Z,99775.63
2023-02-17T11:48:06.976Z,99777.78
2023-02-17T11:50:49.049Z,99773.81
2023-02-17T11:53:35.080Z,99775.78
2023-02-17T11:56:16.685Z,99774.53
2023-02-17T11:59:09.422Z,99765.81
2023-02-17T12:01:57.790Z,99766.13
2023-02-17T12:04:32.384Z,99771.75
2023-02-17T12:07:29.140Z,99775.44
2023-02-17T12:10:11.800Z,99780.59
2023-02-17T12:12:59.040Z,99775.00
2023-02-17T12:15:45.251Z,99769.88
2023-02-17T12:18:35.285Z,99770.66
2023-02-17T12:21:12.815Z,99760.31
2023-02-17T12:24:16.638Z,99754.16
2023-02-17T12:26:55.106Z,99750.91
2023-02-17T12:29:43.191Z,99756.97
2023-02-17T12:32:29.482Z,99761.81
2023-02-17T12:35:14.967Z,99766.59
2023-02-17T12:37:54.318Z,99766.50
2023-02-17T12:40:35.875Z,99752.16
2023-02-17T12:43:22.674Z,99756.50
2023-02-17T12:45:57.934Z,99738.81
2023-02-17T12:48:36.940Z,99749.66
2023-02-17T12:51:13.410Z,99742.53
2023-02-17T12:53:50.164Z,99733.94
2023-02-17T12:56:45.890Z,99723.66
2023-02-17T12:59:23.179Z,99726.00
2023-02-17T13:02:01.774Z,99717.25
2023-02-17T13:04:35.860Z,99711.34
2023-02-17T13:07:21.614Z,99713.53
2023-02-17T13:09:56.830Z,99710.78
2023-02-17T13:12:40.612Z,99700.63
2023-02-17T13:15:39.503Z,99691.97
2023-02-17T13:18:15.483Z,99713.41
2023-02-17T13:20:59.452Z,99697.13
2023-02-17T13:23:36.340Z,99687.84
2023-02-17T13:26:37.121Z,99687.56
2023-02-17T13:29:22.352Z,99691.28
2023-02-17T13:31:58.455Z,99696.88
2023-02-17T13:34:35.728Z,99687.56
2023-02-17T13:37:26.707Z,99697.84
2023-02-17T13:40:00.353Z,99688.41
2023-02-17T13:42:39.945Z,99683.16
2023-02-17T13:45:18.836Z,99686.59
2023-02-17T13:47:55.735Z,99688.59
2023-02-17T13:50:32.323Z,99679.84
2023-02-17T13:53:32.110Z,99665.78
2023-02-17T13:56:07.559Z,99666.00
2023-02-17T13:58:42.758Z,99672.34
2023-02-17T14:01:18.686Z,99659.91
2023-02-17T14:03:55.100Z,99663.63
2023-02-17T14:06:33.491Z,99651.16
2023-02-17T14:09:13.496Z,99642.69
2023-02-17T14:11:46.540Z,99656.84
2023-02-17T14:14:20.130Z,99660.75
2023-02-17T14:17:02.551Z,99651.34
2023-02-17T14:19:45.426Z,99637.53
2023-02-17T14:22:28.818Z,99639.50
2023-02-17T14:25:05.228Z,99624.31
2023-02-17T14:27:45.153Z,99643.34
2023-02-17T14:30:30.245Z,99635.94
2023-02-17T14:33:07.904Z,99644.69
2023-02-17T14:35:51.149Z,99631.66
2023-02-17T14:38:26.513Z,99635.94
2023-02-17T14:41:01.247Z,99647.56
2023-02-17T14:43:34.334Z,99637.28
2023-02-17T14:46:07.672Z,99649.25
2023-02-17T14:48:40.628Z,99634.25
2023-02-17T14:51:16.323Z,99637.34
2023-02-17T14:53:51.204Z,99639.41
2023-02-17T14:56:27.855Z,99634.59
2023-02-17T14:59:00.779Z,99641.34
2023-02-17T15:01:33.661Z,99657.09
2023-02-17T15:04:06.923Z,99652.91
2023-02-17T15:06:43.454Z,99660.69
2023-02-17T15:09:18.879Z,99653.88
2023-02-17T15:11:51.725Z,99649.91
2023-02-17T15:14:24.607Z,99654.66
2023-02-17T15:16:57.643Z,99659.31
2023-02-17T15:19:30.670Z,99652.31
2023-02-17T15:22:06.106Z,99662.66
2023-02-17T15:24:40.628Z,99666.38
2023-02-17T15:27:15.404Z,99665.34
2023-02-17T15:29:48.330Z,99661.38
2023-02-17T15:32:23.955Z,99656.25
2023-02-17T15:34:57.533Z,99648.66
2023-02-17T15:37:31.734Z,99650.97
2023-02-17T15:40:04.999Z,99660.94
2023-02-17T15:42:37.854Z,99658.13
2023-02-17T15:45:13.753Z,99648.47
2023-02-17T15:47:47.312Z,99650.41
2023-02-17T15:50:23.035Z,99665.66
2023-02-17T15:52:58.385Z,99662.84
2023-02-17T15:55:31.230Z,99671.25
2023-02-17T15:58:05.914Z,99658.09
2023-02-17T16:00:38.773Z,99655.34
2023-02-17T16:03:13.527Z,99645.31
2023-02-17T16:05:53.433Z,99654.84
2023-02-17T16:08:27.567Z,99656.19
2023-02-17T16:11:00.384Z,99659.25
2023-02-17T16:13:33.503Z,99659.38
2023-02-17T16:16:11.181Z,99652.22
2023-02-17T16:18:43.948Z,99663.00
2023-02-17T16:21:17.275Z,99651.88
2023-02-17T16:23:52.637Z,99655.19
2023-02-17T16:26:28.667Z,99648.34
2023-02-17T16:29:02.138Z,99648.03
2023-02-17T16:31:36.042Z,99663.59
2023-02-17T16:34:08.990Z,99669.53
2023-02-17T16:36:41.844Z,99671.34
2023-02-17T16:39:18.283Z,99661.63
2023-02-17T16:41:51.211Z,99661.16
2023-02-17T16:44:24.593Z,99663.63
2023-02-17T16:46:59.559Z,99664.84
2023-02-17T16:49:35.949Z,99683.16
2023-02-17T16:52:22.336Z,99681.25
2023-02-17T16:54:56.697Z,99683.94
2023-02-17T16:57:31.104Z,99690.88
2023-02-17T17:00:05.380Z,99696.72
2023-02-17T17:02:38.179Z,99696.50
2023-02-17T17:05:12.640Z,99692.88
2023-02-17T17:07:45.889Z,99697.91
2023-02-17T17:10:22.839Z,99706.38
2023-02-17T17:12:55.910Z,99701.31
2023-02-17T17:15:29.532Z,99696.84
2023-02-17T17:18:04.487Z,99700.09
2023-02-17T17:20:41.693Z,99714.78
2023-02-17T17:23:15.825Z,99711.31
2023-02-17T17:25:49.903Z,99711.69
2023-02-17T17:28:22.975Z,99720.50
2023-02-17T17:30:56.123Z,99726.00
2023-02-17T17:33:29.013Z,99719.56
2023-02-17T17:36:02.057Z,99722.38
2023-02-17T17:38:34.848Z,99732.72
2023-02-17T17:41:12.173Z,99737.56
2023-02-17T17:43:46.932Z,99730.41
2023-02-17T17:46:22.237Z,99722.84
2023-02-17T17:48:55.716Z,99728.31
2023-02-17T17:51:31.026Z,99737.50
2023-02-17T17:54:05.113Z,99738.00
2023-02-17T17:56:43.135Z,99749.50
2023-02-17T17:59:16.042Z,99745.53
2023-02-17T18:01:48.969Z,99749.50
2023-02-17T18:04:21.877Z,99750.69
2023-02-17T18:06:58.038Z,99758.72
2023-02-17T18:09:35.180Z,99752.69
2023-02-17T18:12:12.115Z,99763.16
2023-02-17T18:14:47.186Z,99752.41
2023-02-17T18:17:20.622Z,99763.84
2023-02-17T18:19:55.073Z,99748.75
2023-02-17T18:22:28.111Z,99736.53
2023-02-17T18:25:00.926Z,99732.69
2023-02-17T18:27:40.489Z,99727.41
2023-02-17T18:30:15.752Z,99722.75
2023-02-17T18:32:49.426Z,99728.81
2023-02-17T18:35:22.468Z,99733.69
2023-02-17T18:37:55.377Z,99735.94
2023-02-17T18:40:29.115Z,99735.25
2023-02-17T18:43:03.573Z,99737.94
2023-02-17T18:45:36.818Z,99746.41
2023-02-17T18:48:09.645Z,99741.59
2023-02-17T18:50:42.782Z,99749.13
2023-02-17T18:53:16.630Z,99755.94
2023-02-17T18:55:49.836Z,99753.16
2023-02-17T18:58:24.083Z,99758.88
2023-02-17T19:00:57.143Z,99768.00
2023-02-17T19:03:30.728Z,99771.22
2023-02-17T19:06:09.829Z,99758.78
2023-02-17T19:08:42.674Z,99752.78
2023-02-17T19:11:16.472Z,99763.19
2023-02-17T19:13:52.341Z,99775.91
2023-02-17T19:16:28.512Z,99773.13
2023-02-17T19:19:02.156Z,99764.59
2023-02-17T19:21:36.411Z,99775.91
2023-02-17T19:24:10.695Z,99785.47
2023-02-17T19:26:43.595Z,99778.94
2023-02-17T19:29:17.810Z,99791.81
2023-02-17T19:31:50.792Z,99769.09
2023-02-17T19:34:23.806Z,99768.56
2023-02-17T19:36:57.101Z,99771.47
2023-02-17T19:39:30.564Z,99779.00
2023-02-17T19:42:04.113Z,99777.41
2023-02-17T19:44:38.318Z,99783.84
2023-02-17T19:47:11.579Z,99783.00
2023-02-17T19:49:44.490Z,99785.88
2023-02-17T19:52:18.189Z,99782.78
2023-02-17T19:54:51.076Z,99789.06
2023-02-17T19:57:24.098Z,99779.47
2023-02-17T19:59:58.598Z,99782.28
2023-02-17T20:02:31.694Z,99769.03
2023-02-17T20:05:05.162Z,99781.47
2023-02-17T20:07:38.159Z,99786.28
2023-02-17T20:10:12.948Z,99786.63
2023-02-17T20:12:45.792Z,99779.00
2023-02-17T20:15:20.181Z,99785.81
2023-02-17T20:17:53.418Z,99785.00
2023-02-17T20:20:26.313Z,99776.34
2023-02-17T20:22:59.159Z,99778.34
2023-02-17T20:25:32.196Z,99770.72
2023-02-17T20:28:05.893Z,99783.09
2023-02-17T20:30:42.643Z,99774.00
2023-02-17T20:33:15.719Z,99792.69
2023-02-17T20:35:48.868Z,99783.56
2023-02-17T20:38:21.711Z,99776.69
2023-02-17T20:40:54.689Z,99784.72
2023-02-17T20:43:27.908Z,99783.91
2023-02-17T20:46:02.813Z,99786.34
2023-02-17T20:48:35.808Z,99792.28
2023-02-17T20:51:08.806Z,99804.72
2023-02-17T20:53:41.718Z,99797.06
2023-02-17T20:56:16.654Z,99804.31
2023-02-17T20:58:50.871Z,99808.72
2023-02-17T21:01:25.187Z,99810.25
2023-02-17T21:03:58.159Z,99806.63
2023-02-17T21:06:34.007Z,99801.09
2023-02-17T21:09:09.339Z,99817.38
2023-02-17T21:11:42.981Z,99799.06
2023-02-17T21:14:16.484Z,99818.19
2023-02-17T21:16:50.750Z,99815.03
2023-02-17T21:19:23.682Z,99815.03
2023-02-17T21:21:56.763Z,99819.66
2023-02-17T21:24:29.734Z,99815.38
2023-02-17T21:27:02.670Z,99823.00
2023-02-17T21:29:36.633Z,99821.75
2023-02-17T21:32:10.986Z,99819.81
2023-02-17T21:34:44.280Z,99824.63
2023-02-17T21:37:17.370Z,99826.22
2023-02-17T21:39:50.283Z,99816.63
2023-02-17T21:42:37.008Z,99815.81
2023-02-17T21:45:10.714Z,99821.00
2023-02-17T21:47:45.779Z,99821.09
2023-02-17T21:50:19.774Z,99824.69
2023-02-17T21:52:53.161Z,99822.28
2023-02-17T21:55:26.216Z,99822.28
2023-02-17T21:57:59.107Z,99823.88
2023-02-17T22:00:32.079Z,99838.28
2023-02-17T22:03:06.590Z,99830.63
2023-02-17T22:05:39.655Z,99840.63
2023-02-17T22:08:13.366Z,99842.72
2023-02-17T22:10:46.605Z,99830.66
2023-02-17T22:13:19.514Z,99840.31
2023-02-17T22:16:00.948Z,99828.78
2023-02-17T22:18:37.620Z,99838.78
2023-02-17T22:21:12.903Z,99837.97
2023-02-17T22:23:46.541Z,99840.03
2023-02-17T22:26:24.057Z,99837.97
2023-02-17T22:28:57.834Z,99847.25
2023-02-17T22:31:32.643Z,99846.88
2023-02-17T22:34:09.993Z,99845.69
2023-02-17T22:36:43.129Z,99845.75
2023-02-17T22:39:16.969Z,99845.72
2023-02-17T22:41:50.212Z,99848.63
2023-02-17T22:44:23.472Z,99840.31
2023-02-17T22:46:56.409Z,99833.63
2023-02-17T22:49:30.635Z,99823.66
2023-02-17T22:52:03.579Z,99829.22
2023-02-17T22:54:38.636Z,99834.38
2023-02-17T22:57:11.431Z,99830.31
2023-02-17T22:59:47.550Z,99824.78
2023-02-17T23:02:20.372Z,99828.34
2023-02-17T23:04:54.646Z,99837.16
2023-02-17T23:07:27.638Z,99825.50
2023-02-17T23:10:01.252Z,99826.69
2023-02-17T23:12:34.306Z,99840.22
2023-02-17T23:15:07.603Z,99831.06
2023-02-17T23:17:54.401Z,99834.63
2023-02-17T23:20:28.792Z,99831.44
2023-02-17T23:23:01.682Z,99824.75
2023-02-17T23:25:34.573Z,99835.53
2023-02-17T23:28:07.488Z,99824.72
2023-02-17T23:30:42.035Z,99829.81
2023-02-17T23:33:15.589Z,99826.28
2023-02-17T23:35:50.523Z,99825.09
2023-02-17T23:38:23.949Z,99830.22
2023-02-17T23:40:57.141Z,99836.97
2023-02-17T23:43:30.245Z,99834.28
2023-02-17T23:46:03.399Z,99834.66
2023-02-17T23:48:36.325Z,99835.72
2023-02-17T23:51:11.493Z,99826.59
2023-02-17T23:53:44.927Z,99831.72
2023-02-17T23:56:21.371Z,99827.34
2023-02-17T23:58:55.262Z,99824.91
